sensor_id;sensor_type;location;lat;lon;timestamp;P1;durP1;ratioP1;P2;durP2;ratioP2
67867;SDS011;54672;46.096;14.470;2023-02-01T00:00:00;30.33;;;11.70;;
67867;SDS011;54672;46.096;14.470;2023-02-01T00:02:25;29.67;;;12.10;;
67867;SDS011;54672;46.096;14.470;2023-02-01T00:04:50;25.52;;;11.07;;
67867;SDS011;54672;46.096;14.470;2023-02-01T00:07:16;22.92;;;10.60;;
67867;SDS011;54672;46.096;14.470;2023-02-01T00:09:41;24.85;;;10.13;;
67867;SDS011;54672;46.096;14.470;2023-02-01T00:12:07;27.42;;;10.10;;
67867;SDS011;54672;46.096;14.470;2023-02-01T00:14:32;21.13;;;9.35;;
67867;SDS011;54672;46.096;14.470;2023-02-01T00:17:03;18.90;;;9.15;;
67867;SDS011;54672;46.096;14.470;2023-02-01T00:19:31;32.65;;;11.05;;
67867;SDS011;54672;46.096;14.470;2023-02-01T00:21:56;31.08;;;11.10;;
67867;SDS011;54672;46.096;14.470;2023-02-01T00:24:21;23.23;;;9.48;;
67867;SDS011;54672;46.096;14.470;2023-02-01T00:26:47;28.48;;;9.32;;
67867;SDS011;54672;46.096;14.470;2023-02-01T00:29:14;23.58;;;10.15;;
67867;SDS011;54672;46.096;14.470;2023-02-01T00:31:42;25.45;;;11.45;;
67867;SDS011;54672;46.096;14.470;2023-02-01T00:34:12;26.33;;;10.27;;
67867;SDS011;54672;46.096;14.470;2023-02-01T00:36:40;28.83;;;11.70;;
67867;SDS011;54672;46.096;14.470;2023-02-01T00:39:06;23.88;;;11.05;;
67867;SDS011;54672;46.096;14.470;2023-02-01T00:41:32;19.92;;;10.02;;
67867;SDS011;54672;46.096;14.470;2023-02-01T00:43:57;26.10;;;10.20;;
67867;SDS011;54672;46.096;14.470;2023-02-01T00:46:22;21.75;;;8.63;;
67867;SDS011;54672;46.096;14.470;2023-02-01T00:48:49;23.73;;;9.38;;
67867;SDS011;54672;46.096;14.470;2023-02-01T00:51:16;21.02;;;9.02;;
67867;SDS011;54672;46.096;14.470;2023-02-01T00:53:42;19.35;;;9.75;;
67867;SDS011;54672;46.096;14.470;2023-02-01T00:56:10;22.80;;;9.85;;
67867;SDS011;54672;46.096;14.470;2023-02-01T00:58:36;22.75;;;9.13;;
67867;SDS011;54672;46.096;14.470;2023-02-01T01:01:09;21.60;;;8.75;;
67867;SDS011;54672;46.096;14.470;2023-02-01T01:03:41;23.60;;;8.82;;
67867;SDS011;54672;46.096;14.470;2023-02-01T01:06:10;25.63;;;9.55;;
67867;SDS011;54672;46.096;14.470;2023-02-01T01:08:37;16.52;;;7.78;;
67867;SDS011;54672;46.096;14.470;2023-02-01T01:11:08;24.35;;;9.48;;
67867;SDS011;54672;46.096;14.470;2023-02-01T01:13:42;18.58;;;8.35;;
67867;SDS011;54672;46.096;14.470;2023-02-01T01:16:09;24.90;;;9.00;;
67867;SDS011;54672;46.096;14.470;2023-02-01T01:18:35;17.80;;;7.35;;
67867;SDS011;54672;46.096;14.470;2023-02-01T01:21:03;20.65;;;8.57;;
67867;SDS011;54672;46.096;14.470;2023-02-01T01:23:30;19.10;;;8.45;;
67867;SDS011;54672;46.096;14.470;2023-02-01T01:25:56;21.02;;;8.50;;
67867;SDS011;54672;46.096;14.470;2023-02-01T01:28:21;22.77;;;9.10;;
67867;SDS011;54672;46.096;14.470;2023-02-01T01:30:47;22.35;;;9.35;;
67867;SDS011;54672;46.096;14.470;2023-02-01T01:33:12;24.25;;;10.30;;
67867;SDS011;54672;46.096;14.470;2023-02-01T01:35:38;32.03;;;10.20;;
67867;SDS011;54672;46.096;14.470;2023-02-01T01:38:03;24.63;;;11.02;;
67867;SDS011;54672;46.096;14.470;2023-02-01T01:40:29;29.55;;;9.93;;
67867;SDS011;54672;46.096;14.470;2023-02-01T01:42:56;19.73;;;9.10;;
67867;SDS011;54672;46.096;14.470;2023-02-01T01:47:58;25.02;;;9.35;;
67867;SDS011;54672;46.096;14.470;2023-02-01T01:50:31;22.98;;;9.65;;
67867;SDS011;54672;46.096;14.470;2023-02-01T01:53:00;23.27;;;9.15;;
67867;SDS011;54672;46.096;14.470;2023-02-01T01:55:27;24.17;;;8.90;;
67867;SDS011;54672;46.096;14.470;2023-02-01T01:58:01;25.45;;;9.70;;
67867;SDS011;54672;46.096;14.470;2023-02-01T02:00:30;20.08;;;9.35;;
67867;SDS011;54672;46.096;14.470;2023-02-01T02:03:11;25.02;;;10.95;;
67867;SDS011;54672;46.096;14.470;2023-02-01T02:05:42;23.33;;;10.45;;
67867;SDS011;54672;46.096;14.470;2023-02-01T02:08:09;29.52;;;11.10;;
67867;SDS011;54672;46.096;14.470;2023-02-01T02:10:36;25.05;;;10.00;;
67867;SDS011;54672;46.096;14.470;2023-02-01T02:13:21;25.98;;;10.10;;
67867;SDS011;54672;46.096;14.470;2023-02-01T02:16:30;25.80;;;9.88;;
67867;SDS011;54672;46.096;14.470;2023-02-01T02:30:27;22.75;;;8.77;;
67867;SDS011;54672;46.096;14.470;2023-02-01T02:38:31;16.90;;;6.65;;
67867;SDS011;54672;46.096;14.470;2023-02-01T02:41:18;20.42;;;9.32;;
67867;SDS011;54672;46.096;14.470;2023-02-01T02:44:24;16.23;;;7.20;;
67867;SDS011;54672;46.096;14.470;2023-02-01T02:47:27;15.27;;;5.93;;
67867;SDS011;54672;46.096;14.470;2023-02-01T02:53:37;16.15;;;6.97;;
67867;SDS011;54672;46.096;14.470;2023-02-01T02:56:29;16.38;;;7.25;;
67867;SDS011;54672;46.096;14.470;2023-02-01T02:59:14;16.80;;;6.93;;
67867;SDS011;54672;46.096;14.470;2023-02-01T03:02:03;17.33;;;7.75;;
67867;SDS011;54672;46.096;14.470;2023-02-01T03:04:51;25.17;;;8.98;;
67867;SDS011;54672;46.096;14.470;2023-02-01T03:10:09;18.38;;;8.43;;
67867;SDS011;54672;46.096;14.470;2023-02-01T03:12:45;23.83;;;9.68;;
67867;SDS011;54672;46.096;14.470;2023-02-01T03:15:35;23.70;;;9.02;;
67867;SDS011;54672;46.096;14.470;2023-02-01T03:18:07;22.63;;;8.70;;
67867;SDS011;54672;46.096;14.470;2023-02-01T03:20:39;21.00;;;8.88;;
67867;SDS011;54672;46.096;14.470;2023-02-01T03:23:09;23.27;;;9.20;;
67867;SDS011;54672;46.096;14.470;2023-02-01T03:25:38;19.92;;;8.30;;
67867;SDS011;54672;46.096;14.470;2023-02-01T03:28:05;18.90;;;7.47;;
67867;SDS011;54672;46.096;14.470;2023-02-01T03:33:04;29.73;;;9.55;;
67867;SDS011;54672;46.096;14.470;2023-02-01T03:35:47;19.98;;;8.80;;
67867;SDS011;54672;46.096;14.470;2023-02-01T03:43:55;24.75;;;9.48;;
67867;SDS011;54672;46.096;14.470;2023-02-01T03:46:34;22.33;;;9.23;;
67867;SDS011;54672;46.096;14.470;2023-02-01T03:49:07;18.48;;;8.43;;
67867;SDS011;54672;46.096;14.470;2023-02-01T03:51:36;20.40;;;8.68;;
67867;SDS011;54672;46.096;14.470;2023-02-01T03:54:05;21.35;;;8.45;;
67867;SDS011;54672;46.096;14.470;2023-02-01T03:56:35;17.23;;;6.88;;
67867;SDS011;54672;46.096;14.470;2023-02-01T03:59:02;17.83;;;8.23;;
67867;SDS011;54672;46.096;14.470;2023-02-01T04:01:29;18.95;;;8.30;;
67867;SDS011;54672;46.096;14.470;2023-02-01T04:03:56;18.45;;;8.38;;
67867;SDS011;54672;46.096;14.470;2023-02-01T04:06:22;19.98;;;8.15;;
67867;SDS011;54672;46.096;14.470;2023-02-01T04:08:48;22.00;;;9.02;;
67867;SDS011;54672;46.096;14.470;2023-02-01T04:11:14;21.63;;;9.13;;
67867;SDS011;54672;46.096;14.470;2023-02-01T04:13:40;20.58;;;8.93;;
67867;SDS011;54672;46.096;14.470;2023-02-01T04:16:05;19.45;;;8.02;;
67867;SDS011;54672;46.096;14.470;2023-02-01T04:18:31;21.85;;;8.02;;
67867;SDS011;54672;46.096;14.470;2023-02-01T04:20:56;23.58;;;9.27;;
67867;SDS011;54672;46.096;14.470;2023-02-01T04:23:22;18.48;;;6.88;;
67867;SDS011;54672;46.096;14.470;2023-02-01T04:25:47;19.30;;;8.75;;
67867;SDS011;54672;46.096;14.470;2023-02-01T04:28:13;20.13;;;8.43;;
67867;SDS011;54672;46.096;14.470;2023-02-01T04:30:38;17.75;;;8.00;;
67867;SDS011;54672;46.096;14.470;2023-02-01T04:33:03;25.35;;;9.88;;
67867;SDS011;54672;46.096;14.470;2023-02-01T04:35:32;28.77;;;9.63;;
67867;SDS011;54672;46.096;14.470;2023-02-01T04:37:58;24.42;;;9.93;;
67867;SDS011;54672;46.096;14.470;2023-02-01T04:40:23;21.80;;;8.75;;
67867;SDS011;54672;46.096;14.470;2023-02-01T04:42:49;27.48;;;10.57;;
67867;SDS011;54672;46.096;14.470;2023-02-01T04:45:14;19.95;;;9.40;;
67867;SDS011;54672;46.096;14.470;2023-02-01T04:47:40;25.38;;;10.23;;
67867;SDS011;54672;46.096;14.470;2023-02-01T04:50:05;20.23;;;8.77;;
67867;SDS011;54672;46.096;14.470;2023-02-01T04:52:35;18.88;;;8.90;;
67867;SDS011;54672;46.096;14.470;2023-02-01T04:55:01;18.33;;;9.20;;
67867;SDS011;54672;46.096;14.470;2023-02-01T04:57:27;24.13;;;9.75;;
67867;SDS011;54672;46.096;14.470;2023-02-01T04:59:53;34.75;;;10.73;;
67867;SDS011;54672;46.096;14.470;2023-02-01T05:02:19;21.98;;;10.10;;
67867;SDS011;54672;46.096;14.470;2023-02-01T05:04:44;20.33;;;10.13;;
67867;SDS011;54672;46.096;14.470;2023-02-01T05:07:10;20.90;;;9.63;;
67867;SDS011;54672;46.096;14.470;2023-02-01T05:09:35;21.55;;;10.07;;
67867;SDS011;54672;46.096;14.470;2023-02-01T05:12:00;21.77;;;10.13;;
67867;SDS011;54672;46.096;14.470;2023-02-01T05:14:45;25.08;;;10.05;;
67867;SDS011;54672;46.096;14.470;2023-02-01T05:17:10;27.02;;;10.98;;
67867;SDS011;54672;46.096;14.470;2023-02-01T05:19:36;29.77;;;9.95;;
67867;SDS011;54672;46.096;14.470;2023-02-01T05:22:01;27.23;;;9.15;;
67867;SDS011;54672;46.096;14.470;2023-02-01T05:24:26;19.67;;;9.52;;
67867;SDS011;54672;46.096;14.470;2023-02-01T05:26:52;23.80;;;9.90;;
67867;SDS011;54672;46.096;14.470;2023-02-01T05:29:17;21.33;;;9.98;;
67867;SDS011;54672;46.096;14.470;2023-02-01T05:31:47;19.60;;;9.50;;
67867;SDS011;54672;46.096;14.470;2023-02-01T05:34:13;20.35;;;9.13;;
67867;SDS011;54672;46.096;14.470;2023-02-01T05:36:39;20.45;;;9.00;;
67867;SDS011;54672;46.096;14.470;2023-02-01T05:39:05;17.35;;;7.25;;
67867;SDS011;54672;46.096;14.470;2023-02-01T05:41:30;34.90;;;10.65;;
67867;SDS011;54672;46.096;14.470;2023-02-01T05:43:56;23.70;;;9.88;;
67867;SDS011;54672;46.096;14.470;2023-02-01T05:46:21;21.48;;;8.68;;
67867;SDS011;54672;46.096;14.470;2023-02-01T05:48:47;28.77;;;11.75;;
67867;SDS011;54672;46.096;14.470;2023-02-01T05:51:12;25.63;;;11.90;;
67867;SDS011;54672;46.096;14.470;2023-02-01T05:53:38;26.55;;;11.13;;
67867;SDS011;54672;46.096;14.470;2023-02-01T05:56:04;28.13;;;12.65;;
67867;SDS011;54672;46.096;14.470;2023-02-01T05:58:30;25.50;;;12.38;;
67867;SDS011;54672;46.096;14.470;2023-02-01T06:00:58;21.50;;;10.15;;
67867;SDS011;54672;46.096;14.470;2023-02-01T06:03:25;24.00;;;10.65;;
67867;SDS011;54672;46.096;14.470;2023-02-01T06:05:51;34.67;;;13.35;;
67867;SDS011;54672;46.096;14.470;2023-02-01T06:08:17;33.88;;;12.23;;
67867;SDS011;54672;46.096;14.470;2023-02-01T06:10:42;30.13;;;12.57;;
67867;SDS011;54672;46.096;14.470;2023-02-01T06:13:08;27.38;;;11.00;;
67867;SDS011;54672;46.096;14.470;2023-02-01T06:15:34;19.80;;;8.45;;
67867;SDS011;54672;46.096;14.470;2023-02-01T06:18:00;21.30;;;10.10;;
67867;SDS011;54672;46.096;14.470;2023-02-01T06:20:25;24.63;;;11.20;;
67867;SDS011;54672;46.096;14.470;2023-02-01T06:22:51;21.25;;;10.90;;
67867;SDS011;54672;46.096;14.470;2023-02-01T06:25:17;22.40;;;10.98;;
67867;SDS011;54672;46.096;14.470;2023-02-01T06:27:44;30.33;;;10.95;;
67867;SDS011;54672;46.096;14.470;2023-02-01T06:30:10;27.67;;;10.60;;
67867;SDS011;54672;46.096;14.470;2023-02-01T06:32:38;25.33;;;9.00;;
67867;SDS011;54672;46.096;14.470;2023-02-01T06:35:05;22.65;;;9.38;;
67867;SDS011;54672;46.096;14.470;2023-02-01T06:37:32;27.73;;;9.90;;
67867;SDS011;54672;46.096;14.470;2023-02-01T06:39:58;26.27;;;9.95;;
67867;SDS011;54672;46.096;14.470;2023-02-01T06:42:23;32.90;;;13.40;;
67867;SDS011;54672;46.096;14.470;2023-02-01T06:44:49;83.53;;;32.60;;
67867;SDS011;54672;46.096;14.470;2023-02-01T06:47:14;31.95;;;13.05;;
67867;SDS011;54672;46.096;14.470;2023-02-01T06:49:40;25.77;;;11.35;;
67867;SDS011;54672;46.096;14.470;2023-02-01T06:52:05;22.40;;;8.82;;
67867;SDS011;54672;46.096;14.470;2023-02-01T06:54:31;28.00;;;11.23;;
67867;SDS011;54672;46.096;14.470;2023-02-01T06:56:58;22.17;;;9.60;;
67867;SDS011;54672;46.096;14.470;2023-02-01T06:59:24;20.30;;;9.88;;
67867;SDS011;54672;46.096;14.470;2023-02-01T07:01:49;23.67;;;10.60;;
67867;SDS011;54672;46.096;14.470;2023-02-01T07:04:15;85.93;;;33.47;;
67867;SDS011;54672;46.096;14.470;2023-02-01T07:06:40;105.80;;;42.05;;
67867;SDS011;54672;46.096;14.470;2023-02-01T07:09:06;32.13;;;14.18;;
67867;SDS011;54672;46.096;14.470;2023-02-01T07:11:32;67.40;;;32.45;;
67867;SDS011;54672;46.096;14.470;2023-02-01T07:13:58;43.28;;;20.52;;
67867;SDS011;54672;46.096;14.470;2023-02-01T07:16:25;49.58;;;21.48;;
67867;SDS011;54672;46.096;14.470;2023-02-01T07:18:51;47.17;;;18.60;;
67867;SDS011;54672;46.096;14.470;2023-02-01T07:21:17;39.20;;;16.52;;
67867;SDS011;54672;46.096;14.470;2023-02-01T07:23:43;31.55;;;13.63;;
67867;SDS011;54672;46.096;14.470;2023-02-01T07:26:09;27.83;;;13.35;;
67867;SDS011;54672;46.096;14.470;2023-02-01T07:28:39;28.75;;;13.80;;
67867;SDS011;54672;46.096;14.470;2023-02-01T07:31:06;40.50;;;13.55;;
67867;SDS011;54672;46.096;14.470;2023-02-01T07:33:40;23.95;;;11.15;;
67867;SDS011;54672;46.096;14.470;2023-02-01T07:36:07;24.95;;;12.40;;
67867;SDS011;54672;46.096;14.470;2023-02-01T07:38:36;17.38;;;8.00;;
67867;SDS011;54672;46.096;14.470;2023-02-01T07:41:02;27.20;;;11.23;;
67867;SDS011;54672;46.096;14.470;2023-02-01T07:43:30;20.45;;;10.35;;
67867;SDS011;54672;46.096;14.470;2023-02-01T07:45:56;26.10;;;11.35;;
67867;SDS011;54672;46.096;14.470;2023-02-01T07:48:22;21.98;;;10.30;;
67867;SDS011;54672;46.096;14.470;2023-02-01T07:50:56;24.00;;;10.75;;
67867;SDS011;54672;46.096;14.470;2023-02-01T07:53:23;24.00;;;10.98;;
67867;SDS011;54672;46.096;14.470;2023-02-01T07:55:49;25.08;;;12.70;;
67867;SDS011;54672;46.096;14.470;2023-02-01T07:58:14;26.75;;;11.88;;
67867;SDS011;54672;46.096;14.470;2023-02-01T08:00:40;34.92;;;15.73;;
67867;SDS011;54672;46.096;14.470;2023-02-01T08:03:24;29.45;;;13.25;;
67867;SDS011;54672;46.096;14.470;2023-02-01T08:05:53;26.88;;;12.35;;
67867;SDS011;54672;46.096;14.470;2023-02-01T08:08:20;31.35;;;13.73;;
67867;SDS011;54672;46.096;14.470;2023-02-01T08:10:46;28.25;;;12.93;;
67867;SDS011;54672;46.096;14.470;2023-02-01T08:13:11;23.13;;;11.48;;
67867;SDS011;54672;46.096;14.470;2023-02-01T08:15:37;26.23;;;10.15;;
67867;SDS011;54672;46.096;14.470;2023-02-01T08:18:02;23.00;;;9.95;;
67867;SDS011;54672;46.096;14.470;2023-02-01T08:20:28;25.60;;;13.35;;
67867;SDS011;54672;46.096;14.470;2023-02-01T08:22:54;34.58;;;14.70;;
67867;SDS011;54672;46.096;14.470;2023-02-01T08:25:20;23.63;;;11.40;;
67867;SDS011;54672;46.096;14.470;2023-02-01T08:27:45;57.80;;;30.15;;
67867;SDS011;54672;46.096;14.470;2023-02-01T08:30:11;33.67;;;16.33;;
67867;SDS011;54672;46.096;14.470;2023-02-01T08:32:37;25.52;;;11.95;;
67867;SDS011;54672;46.096;14.470;2023-02-01T08:35:03;22.73;;;11.32;;
67867;SDS011;54672;46.096;14.470;2023-02-01T08:37:29;24.05;;;11.63;;
67867;SDS011;54672;46.096;14.470;2023-02-01T08:39:55;29.67;;;13.77;;
67867;SDS011;54672;46.096;14.470;2023-02-01T08:42:20;23.52;;;10.85;;
67867;SDS011;54672;46.096;14.470;2023-02-01T08:45:05;23.17;;;11.00;;
67867;SDS011;54672;46.096;14.470;2023-02-01T08:47:32;29.15;;;12.23;;
67867;SDS011;54672;46.096;14.470;2023-02-01T08:49:58;29.83;;;11.55;;
67867;SDS011;54672;46.096;14.470;2023-02-01T08:52:24;24.75;;;10.20;;
67867;SDS011;54672;46.096;14.470;2023-02-01T08:54:49;24.20;;;10.65;;
67867;SDS011;54672;46.096;14.470;2023-02-01T08:57:15;24.38;;;11.30;;
67867;SDS011;54672;46.096;14.470;2023-02-01T08:59:40;32.03;;;13.32;;
67867;SDS011;54672;46.096;14.470;2023-02-01T09:02:08;27.88;;;12.25;;
67867;SDS011;54672;46.096;14.470;2023-02-01T09:04:36;30.80;;;12.43;;
67867;SDS011;54672;46.096;14.470;2023-02-01T09:07:01;27.20;;;11.55;;
67867;SDS011;54672;46.096;14.470;2023-02-01T09:09:27;26.45;;;11.65;;
67867;SDS011;54672;46.096;14.470;2023-02-01T09:11:53;22.38;;;11.13;;
67867;SDS011;54672;46.096;14.470;2023-02-01T09:14:18;27.35;;;11.85;;
67867;SDS011;54672;46.096;14.470;2023-02-01T09:16:44;25.25;;;11.68;;
67867;SDS011;54672;46.096;14.470;2023-02-01T09:19:09;30.42;;;13.00;;
67867;SDS011;54672;46.096;14.470;2023-02-01T09:21:35;29.83;;;13.23;;
67867;SDS011;54672;46.096;14.470;2023-02-01T09:24:01;34.15;;;15.70;;
67867;SDS011;54672;46.096;14.470;2023-02-01T09:26:26;34.30;;;15.57;;
67867;SDS011;54672;46.096;14.470;2023-02-01T09:28:52;26.63;;;12.73;;
67867;SDS011;54672;46.096;14.470;2023-02-01T09:31:18;23.15;;;10.73;;
67867;SDS011;54672;46.096;14.470;2023-02-01T09:33:44;27.67;;;12.07;;
67867;SDS011;54672;46.096;14.470;2023-02-01T09:36:09;28.55;;;11.35;;
67867;SDS011;54672;46.096;14.470;2023-02-01T09:38:35;21.70;;;9.95;;
67867;SDS011;54672;46.096;14.470;2023-02-01T09:41:00;31.92;;;13.63;;
67867;SDS011;54672;46.096;14.470;2023-02-01T09:43:33;25.50;;;11.30;;
67867;SDS011;54672;46.096;14.470;2023-02-01T09:46:18;29.83;;;12.32;;
67867;SDS011;54672;46.096;14.470;2023-02-01T09:48:48;29.42;;;11.95;;
67867;SDS011;54672;46.096;14.470;2023-02-01T09:51:25;26.70;;;11.38;;
67867;SDS011;54672;46.096;14.470;2023-02-01T09:54:00;35.40;;;15.25;;
67867;SDS011;54672;46.096;14.470;2023-02-01T09:56:41;28.50;;;11.63;;
67867;SDS011;54672;46.096;14.470;2023-02-01T10:01:56;57.67;;;20.17;;
67867;SDS011;54672;46.096;14.470;2023-02-01T10:04:24;44.10;;;15.02;;
67867;SDS011;54672;46.096;14.470;2023-02-01T10:09:42;35.85;;;12.55;;
67867;SDS011;54672;46.096;14.470;2023-02-01T10:17:46;41.17;;;15.77;;
67867;SDS011;54672;46.096;14.470;2023-02-01T10:20:29;31.25;;;13.40;;
67867;SDS011;54672;46.096;14.470;2023-02-01T10:25:36;32.80;;;13.15;;
67867;SDS011;54672;46.096;14.470;2023-02-01T10:28:18;32.25;;;12.90;;
67867;SDS011;54672;46.096;14.470;2023-02-01T10:30:47;32.28;;;14.25;;
67867;SDS011;54672;46.096;14.470;2023-02-01T10:36:04;26.88;;;12.75;;
67867;SDS011;54672;46.096;14.470;2023-02-01T10:38:38;26.65;;;13.70;;
67867;SDS011;54672;46.096;14.470;2023-02-01T10:41:22;43.58;;;18.08;;
67867;SDS011;54672;46.096;14.470;2023-02-01T10:43:54;30.83;;;14.65;;
67867;SDS011;54672;46.096;14.470;2023-02-01T10:46:24;30.63;;;13.18;;
67867;SDS011;54672;46.096;14.470;2023-02-01T10:48:50;33.15;;;14.25;;
67867;SDS011;54672;46.096;14.470;2023-02-01T10:54:03;41.03;;;17.15;;
67867;SDS011;54672;46.096;14.470;2023-02-01T10:56:37;38.15;;;15.60;;
67867;SDS011;54672;46.096;14.470;2023-02-01T10:59:04;30.83;;;13.73;;
67867;SDS011;54672;46.096;14.470;2023-02-01T11:01:33;32.78;;;14.23;;
67867;SDS011;54672;46.096;14.470;2023-02-01T11:04:05;28.67;;;12.88;;
67867;SDS011;54672;46.096;14.470;2023-02-01T11:14:17;31.10;;;14.20;;
67867;SDS011;54672;46.096;14.470;2023-02-01T11:16:47;31.20;;;15.40;;
67867;SDS011;54672;46.096;14.470;2023-02-01T11:19:15;31.70;;;14.75;;
67867;SDS011;54672;46.096;14.470;2023-02-01T11:21:42;34.85;;;15.20;;
67867;SDS011;54672;46.096;14.470;2023-02-01T11:24:16;34.45;;;15.45;;
67867;SDS011;54672;46.096;14.470;2023-02-01T11:26:48;35.15;;;15.90;;
67867;SDS011;54672;46.096;14.470;2023-02-01T11:29:17;32.88;;;15.02;;
67867;SDS011;54672;46.096;14.470;2023-02-01T11:31:47;36.63;;;17.10;;
67867;SDS011;54672;46.096;14.470;2023-02-01T11:34:17;41.40;;;16.40;;
67867;SDS011;54672;46.096;14.470;2023-02-01T11:36:45;31.90;;;15.07;;
67867;SDS011;54672;46.096;14.470;2023-02-01T11:42:02;35.55;;;15.88;;
67867;SDS011;54672;46.096;14.470;2023-02-01T11:44:37;44.47;;;19.17;;
67867;SDS011;54672;46.096;14.470;2023-02-01T11:49:45;32.58;;;15.35;;
67867;SDS011;54672;46.096;14.470;2023-02-01T11:57:31;40.00;;;15.57;;
67867;SDS011;54672;46.096;14.470;2023-02-01T12:11:08;32.17;;;16.13;;
67867;SDS011;54672;46.096;14.470;2023-02-01T12:13:46;34.03;;;16.00;;
67867;SDS011;54672;46.096;14.470;2023-02-01T12:38:51;33.85;;;16.08;;
67867;SDS011;54672;46.096;14.470;2023-02-01T12:44:46;37.63;;;16.42;;
67867;SDS011;54672;46.096;14.470;2023-02-01T12:50:50;33.88;;;16.75;;
67867;SDS011;54672;46.096;14.470;2023-02-01T12:52:49;31.65;;;16.13;;
67867;SDS011;54672;46.096;14.470;2023-02-01T12:55:24;32.90;;;17.00;;
67867;SDS011;54672;46.096;14.470;2023-02-01T12:58:15;33.08;;;15.45;;
67867;SDS011;54672;46.096;14.470;2023-02-01T13:00:47;32.88;;;15.55;;
67867;SDS011;54672;46.096;14.470;2023-02-01T13:06:22;38.38;;;16.27;;
67867;SDS011;54672;46.096;14.470;2023-02-01T13:09:03;36.33;;;15.65;;
67867;SDS011;54672;46.096;14.470;2023-02-01T13:11:39;32.75;;;15.77;;
67867;SDS011;54672;46.096;14.470;2023-02-01T13:17:15;38.75;;;17.55;;
67867;SDS011;54672;46.096;14.470;2023-02-01T13:19:49;33.42;;;15.10;;
67867;SDS011;54672;46.096;14.470;2023-02-01T13:22:29;40.17;;;17.33;;
67867;SDS011;54672;46.096;14.470;2023-02-01T13:24:58;31.70;;;15.05;;
67867;SDS011;54672;46.096;14.470;2023-02-01T13:27:27;35.13;;;16.10;;
67867;SDS011;54672;46.096;14.470;2023-02-01T13:40:33;40.75;;;18.50;;
67867;SDS011;54672;46.096;14.470;2023-02-01T13:43:20;36.95;;;18.33;;
67867;SDS011;54672;46.096;14.470;2023-02-01T13:45:50;36.97;;;17.67;;
67867;SDS011;54672;46.096;14.470;2023-02-01T13:48:26;41.47;;;21.15;;
67867;SDS011;54672;46.096;14.470;2023-02-01T13:50:57;44.25;;;19.65;;
67867;SDS011;54672;46.096;14.470;2023-02-01T13:53:34;42.03;;;19.45;;
67867;SDS011;54672;46.096;14.470;2023-02-01T13:58:40;38.65;;;17.23;;
67867;SDS011;54672;46.096;14.470;2023-02-01T14:19:20;34.33;;;15.50;;
67867;SDS011;54672;46.096;14.470;2023-02-01T14:21:50;30.90;;;16.20;;
67867;SDS011;54672;46.096;14.470;2023-02-01T14:26:50;36.03;;;16.38;;
67867;SDS011;54672;46.096;14.470;2023-02-01T14:29:37;38.05;;;16.45;;
67867;SDS011;54672;46.096;14.470;2023-02-01T14:37:13;38.83;;;16.77;;
67867;SDS011;54672;46.096;14.470;2023-02-01T14:40:00;33.88;;;15.55;;
67867;SDS011;54672;46.096;14.470;2023-02-01T14:47:47;34.45;;;14.25;;
67867;SDS011;54672;46.096;14.470;2023-02-01T14:53:02;29.90;;;14.15;;
67867;SDS011;54672;46.096;14.470;2023-02-01T14:55:53;32.47;;;16.05;;
67867;SDS011;54672;46.096;14.470;2023-02-01T15:09:16;26.05;;;11.80;;
67867;SDS011;54672;46.096;14.470;2023-02-01T15:12:13;26.90;;;12.18;;
67867;SDS011;54672;46.096;14.470;2023-02-01T15:15:07;23.90;;;11.13;;
67867;SDS011;54672;46.096;14.470;2023-02-01T15:17:37;21.33;;;10.20;;
67867;SDS011;54672;46.096;14.470;2023-02-01T15:22:40;28.27;;;12.90;;
67867;SDS011;54672;46.096;14.470;2023-02-01T15:25:17;27.13;;;11.82;;
67867;SDS011;54672;46.096;14.470;2023-02-01T15:27:54;25.65;;;11.98;;
67867;SDS011;54672;46.096;14.470;2023-02-01T15:30:25;36.45;;;19.02;;
67867;SDS011;54672;46.096;14.470;2023-02-01T15:33:04;23.17;;;12.60;;
67867;SDS011;54672;46.096;14.470;2023-02-01T15:35:44;29.20;;;13.10;;
67867;SDS011;54672;46.096;14.470;2023-02-01T15:40:56;26.75;;;11.30;;
67867;SDS011;54672;46.096;14.470;2023-02-01T15:43:25;24.88;;;10.77;;
67867;SDS011;54672;46.096;14.470;2023-02-01T15:45:52;23.88;;;11.00;;
67867;SDS011;54672;46.096;14.470;2023-02-01T15:48:22;27.30;;;12.52;;
67867;SDS011;54672;46.096;14.470;2023-02-01T15:50:50;30.58;;;13.85;;
67867;SDS011;54672;46.096;14.470;2023-02-01T15:53:18;26.30;;;12.55;;
67867;SDS011;54672;46.096;14.470;2023-02-01T15:55:46;23.20;;;10.68;;
67867;SDS011;54672;46.096;14.470;2023-02-01T15:58:18;39.40;;;17.80;;
67867;SDS011;54672;46.096;14.470;2023-02-01T16:01:02;37.40;;;16.45;;
67867;SDS011;54672;46.096;14.470;2023-02-01T16:06:00;25.80;;;10.93;;
67867;SDS011;54672;46.096;14.470;2023-02-01T16:08:28;20.90;;;10.40;;
67867;SDS011;54672;46.096;14.470;2023-02-01T16:11:00;17.15;;;9.73;;
67867;SDS011;54672;46.096;14.470;2023-02-01T16:13:38;24.02;;;10.38;;
67867;SDS011;54672;46.096;14.470;2023-02-01T16:16:06;23.27;;;10.70;;
67867;SDS011;54672;46.096;14.470;2023-02-01T16:18:36;19.92;;;9.30;;
67867;SDS011;54672;46.096;14.470;2023-02-01T16:21:02;22.77;;;9.98;;
67867;SDS011;54672;46.096;14.470;2023-02-01T16:23:27;21.10;;;9.68;;
67867;SDS011;54672;46.096;14.470;2023-02-01T16:25:54;23.27;;;10.25;;
67867;SDS011;54672;46.096;14.470;2023-02-01T16:28:19;20.60;;;9.50;;
67867;SDS011;54672;46.096;14.470;2023-02-01T16:30:45;20.05;;;9.60;;
67867;SDS011;54672;46.096;14.470;2023-02-01T16:33:11;24.17;;;10.55;;
67867;SDS011;54672;46.096;14.470;2023-02-01T16:35:42;22.13;;;9.75;;
67867;SDS011;54672;46.096;14.470;2023-02-01T16:38:09;25.67;;;10.77;;
67867;SDS011;54672;46.096;14.470;2023-02-01T16:40:41;21.80;;;11.07;;
67867;SDS011;54672;46.096;14.470;2023-02-01T16:43:12;28.92;;;12.00;;
67867;SDS011;54672;46.096;14.470;2023-02-01T16:45:39;39.58;;;17.00;;
67867;SDS011;54672;46.096;14.470;2023-02-01T16:48:05;38.00;;;17.80;;
67867;SDS011;54672;46.096;14.470;2023-02-01T16:50:32;37.83;;;17.25;;
67867;SDS011;54672;46.096;14.470;2023-02-01T16:52:58;43.30;;;18.23;;
67867;SDS011;54672;46.096;14.470;2023-02-01T16:55:24;34.60;;;15.98;;
67867;SDS011;54672;46.096;14.470;2023-02-01T16:57:50;36.90;;;14.65;;
67867;SDS011;54672;46.096;14.470;2023-02-01T17:00:16;32.90;;;12.68;;
67867;SDS011;54672;46.096;14.470;2023-02-01T17:02:42;25.98;;;12.00;;
67867;SDS011;54672;46.096;14.470;2023-02-01T17:05:08;26.75;;;12.90;;
67867;SDS011;54672;46.096;14.470;2023-02-01T17:07:34;28.38;;;12.98;;
67867;SDS011;54672;46.096;14.470;2023-02-01T17:10:01;48.03;;;20.63;;
67867;SDS011;54672;46.096;14.470;2023-02-01T17:12:29;37.80;;;17.02;;
67867;SDS011;54672;46.096;14.470;2023-02-01T17:14:56;40.28;;;18.35;;
67867;SDS011;54672;46.096;14.470;2023-02-01T17:17:23;43.42;;;17.55;;
67867;SDS011;54672;46.096;14.470;2023-02-01T17:19:51;39.30;;;17.30;;
67867;SDS011;54672;46.096;14.470;2023-02-01T17:22:21;27.23;;;12.70;;
67867;SDS011;54672;46.096;14.470;2023-02-01T17:24:47;32.25;;;14.20;;
67867;SDS011;54672;46.096;14.470;2023-02-01T17:27:14;28.77;;;13.02;;
67867;SDS011;54672;46.096;14.470;2023-02-01T17:29:41;45.70;;;18.75;;